Time;durP1;ratioP1;P1;durP2;ratioP2;P2;SDS_P1;SDS_P2;PMS_P1;PMS_P2;Temp;Humidity;BMP_temperature;BMP_pressure;BME280_temperature;BME280_humidity;BME280_pressure;Samples;Min_cycle;Max_cycle;Signal;HPM_P1;HPM_P2
2022/04/29 00:00:17;;;;;;;19.20;9.75;;;13.30;97.60;;;;;;4971023;28;20042;-71
2022/04/29 00:02:46;;;;;;;17.75;10.05;;;13.30;97.80;;;;;;4970525;28;20076;-71
2022/04/29 00:05:14;;;;;;;16.08;9.23;;;13.30;98.10;;;;;;4964224;28;20527;-72
2022/04/29 00:07:40;;;;;;;15.75;9.30;;;13.20;98.10;;;;;;4965533;28;20069;-71
2022/04/29 00:10:08;;;;;;;19.83;9.95;;;13.20;99.00;;;;;;4963760;28;20034;-72
2022/04/29 00:12:35;;;;;;;15.88;9.43;;;13.10;98.90;;;;;;4966844;28;20031;-72
2022/04/29 00:15:01;;;;;;;17.10;10.57;;;13.20;98.00;;;;;;4964084;28;20026;-71
2022/04/29 00:17:27;;;;;;;17.60;10.68;;;13.20;98.00;;;;;;4975010;28;20386;-72
2022/04/29 00:19:52;;;;;;;17.88;9.70;;;13.20;98.70;;;;;;4962680;28;20027;-71
2022/04/29 00:22:18;;;;;;;24.15;10.88;;;13.10;98.60;;;;;;4964826;28;20437;-72
2022/04/29 00:24:44;;;;;;;20.42;9.32;;;13.10;98.40;;;;;;4963858;28;20030;-71
2022/04/29 00:27:10;;;;;;;16.60;9.02;;;13.10;99.00;;;;;;4965296;28;20034;-72
2022/04/29 00:29:35;;;;;;;17.08;9.93;;;13.10;98.90;;;;;;4967368;28;20026;-72
2022/04/29 00:32:01;;;;;;;17.58;10.45;;;13.10;98.70;;;;;;4965029;28;20099;-72
2022/04/29 00:34:27;;;;;;;17.30;10.75;;;13.00;98.50;;;;;;4967140;28;20070;-72
2022/04/29 00:36:52;;;;;;;20.05;10.82;;;13.00;98.80;;;;;;4966683;28;20495;-72
2022/04/29 00:39:18;;;;;;;14.85;9.68;;;13.00;98.90;;;;;;4972354;28;20030;-72
2022/04/29 00:41:44;;;;;;;21.08;9.73;;;13.00;99.20;;;;;;4966297;28;20030;-71
2022/04/29 00:44:11;;;;;;;24.83;9.77;;;13.00;98.50;;;;;;4964758;28;20495;-71
2022/04/29 00:46:41;;;;;;;20.20;10.35;;;13.00;99.10;;;;;;4966538;28;20039;-71
2022/04/29 00:49:11;;;;;;;24.40;9.45;;;12.90;99.90;;;;;;4964779;28;20019;-72
2022/04/29 00:51:37;;;;;;;17.60;9.15;;;12.80;99.90;;;;;;4966367;28;20101;-72
2022/04/29 00:54:07;;;;;;;17.55;9.15;;;12.70;99.90;;;;;;4982450;28;20524;-71
2022/04/29 00:56:36;;;;;;;15.82;8.40;;;12.70;99.90;;;;;;4964642;28;20068;-71
2022/04/29 00:59:09;;;;;;;15.65;9.38;;;12.70;99.90;;;;;;4967505;28;20027;-71
2022/04/29 01:01:37;;;;;;;21.02;9.55;;;12.80;99.60;;;;;;4968727;28;20011;-71
2022/04/29 01:04:03;;;;;;;16.10;8.90;;;12.50;99.90;;;;;;4969311;28;20724;-72
2022/04/29 01:06:29;;;;;;;14.27;9.75;;;12.60;99.90;;;;;;4967919;28;20388;-71
2022/04/29 01:08:55;;;;;;;13.25;9.80;;;12.60;99.90;;;;;;4970851;28;20056;-71
2022/04/29 01:11:23;;;;;;;14.70;9.93;;;12.60;99.90;;;;;;4956227;28;20161;-71
2022/04/29 01:13:50;;;;;;;14.75;9.05;;;12.60;99.90;;;;;;4964481;28;20042;-71
2022/04/29 01:16:17;;;;;;;16.02;8.75;;;12.50;99.90;;;;;;4967099;28;20064;-72
2022/04/29 01:18:43;;;;;;;22.50;10.07;;;12.60;99.90;;;;;;4962358;28;20522;-72
2022/04/29 01:21:09;;;;;;;19.20;9.30;;;12.60;99.90;;;;;;4964354;28;20030;-71
2022/04/29 01:23:35;;;;;;;14.40;9.32;;;12.60;99.90;;;;;;4963926;28;20034;-72
2022/04/29 01:26:02;;;;;;;13.50;9.05;;;12.60;99.90;;;;;;4968084;28;20019;-71
2022/04/29 01:28:30;;;;;;;19.58;8.85;;;12.60;99.90;;;;;;4969397;28;20051;-71
2022/04/29 01:30:57;;;;;;;16.40;9.73;;;12.50;99.90;;;;;;4958380;28;20487;-72
2022/04/29 01:33:25;;;;;;;16.92;9.93;;;12.50;99.90;;;;;;4967505;28;20442;-70
2022/04/29 01:35:50;;;;;;;16.65;9.07;;;12.50;99.90;;;;;;4967425;28;20387;-71
2022/04/29 01:38:16;;;;;;;17.65;9.80;;;12.50;99.90;;;;;;4964240;28;20031;-71
2022/04/29 01:40:42;;;;;;;17.45;9.43;;;12.40;99.90;;;;;;4966217;28;20026;-71
2022/04/29 01:43:08;;;;;;;18.13;9.95;;;12.50;99.90;;;;;;4963030;28;20031;-71
2022/04/29 01:45:33;;;;;;;16.58;9.77;;;12.50;99.90;;;;;;4961699;28;20062;-71
2022/04/29 01:47:59;;;;;;;15.60;9.95;;;12.50;99.90;;;;;;4973578;28;20019;-71
2022/04/29 01:50:26;;;;;;;18.92;9.77;;;12.50;99.90;;;;;;4968541;28;20127;-71
2022/04/29 01:52:52;;;;;;;19.80;10.00;;;12.50;99.90;;;;;;4967693;28;20023;-73
2022/04/29 01:55:17;;;;;;;17.80;10.05;;;12.50;99.90;;;;;;4968706;28;20037;-72
2022/04/29 01:57:48;;;;;;;21.23;9.82;;;12.40;99.90;;;;;;4970388;28;20096;-73
2022/04/29 02:00:14;;;;;;;23.10;10.38;;;12.40;99.90;;;;;;4968096;28;20034;-72
2022/04/29 02:02:39;;;;;;;20.45;10.07;;;12.40;99.90;;;;;;4967106;28;22067;-73
2022/04/29 02:05:05;;;;;;;13.75;9.38;;;12.30;99.90;;;;;;4966283;28;20563;-71
2022/04/29 02:07:31;;;;;;;19.52;11.75;;;12.30;99.90;;;;;;4967062;28;20058;-72
2022/04/29 02:09:57;;;;;;;17.58;11.40;;;12.30;99.90;;;;;;4965196;28;20116;-72
2022/04/29 02:12:22;;;;;;;16.70;9.48;;;12.30;99.90;;;;;;4965002;28;20084;-72
2022/04/29 02:14:48;;;;;;;23.00;10.27;;;12.20;99.90;;;;;;4968231;28;20044;-72
2022/04/29 02:17:15;;;;;;;18.23;9.88;;;12.20;99.90;;;;;;4965445;28;20180;-72
2022/04/29 02:19:40;;;;;;;17.67;10.52;;;12.20;99.90;;;;;;4966495;28;20168;-73
2022/04/29 02:22:08;;;;;;;24.00;10.32;;;12.20;99.90;;;;;;4966423;28;20505;-73
2022/04/29 02:24:34;;;;;;;18.70;10.98;;;12.20;99.90;;;;;;4964969;28;20034;-73
2022/04/29 02:27:00;;;;;;;21.02;10.95;;;12.20;99.90;;;;;;4965319;28;20027;-73
2022/04/29 02:29:30;;;;;;;19.50;10.50;;;12.10;99.90;;;;;;4966223;28;20061;-72
2022/04/29 02:31:57;;;;;;;21.65;10.38;;;12.10;99.90;;;;;;4966343;28;20441;-72
2022/04/29 02:34:23;;;;;;;18.08;9.40;;;12.10;99.90;;;;;;4963589;28;20039;-73
2022/04/29 02:36:49;;;;;;;19.83;10.63;;;12.00;99.90;;;;;;4964327;28;20105;-72
2022/04/29 02:39:15;;;;;;;17.10;10.52;;;12.00;99.90;;;;;;4960705;28;20033;-72
2022/04/29 02:41:41;;;;;;;20.02;10.75;;;12.00;99.90;;;;;;4966209;28;20031;-72
2022/04/29 02:44:06;;;;;;;15.98;11.00;;;12.00;99.90;;;;;;4966824;28;20042;-72
2022/04/29 02:46:33;;;;;;;21.05;10.30;;;12.00;99.90;;;;;;4962291;28;20526;-71
2022/04/29 02:48:58;;;;;;;24.25;10.98;;;12.00;99.90;;;;;;4967039;28;20108;-71
2022/04/29 02:51:24;;;;;;;20.17;11.05;;;12.00;99.90;;;;;;4967639;28;20035;-71
2022/04/29 02:53:51;;;;;;;17.92;10.48;;;12.00;99.90;;;;;;4968101;28;20046;-70
2022/04/29 02:56:17;;;;;;;23.75;12.52;;;12.00;99.90;;;;;;4964434;28;20032;-72
2022/04/29 02:58:43;;;;;;;15.98;10.45;;;12.00;99.90;;;;;;4962980;28;20395;-72
2022/04/29 03:01:09;;;;;;;18.67;11.05;;;11.90;99.90;;;;;;4964742;28;20035;-71
2022/04/29 03:03:35;;;;;;;19.95;10.75;;;11.90;99.90;;;;;;4971587;28;20574;-71
2022/04/29 03:06:01;;;;;;;19.13;11.07;;;11.80;99.90;;;;;;4970989;28;20084;-72
2022/04/29 03:08:27;;;;;;;21.05;11.02;;;11.90;99.90;;;;;;4971658;28;20022;-72
2022/04/29 03:10:53;;;;;;;17.83;11.45;;;11.90;99.90;;;;;;4968362;28;20387;-72
2022/04/29 03:13:18;;;;;;;18.75;10.45;;;11.80;99.90;;;;;;4970406;28;20047;-71
2022/04/29 03:15:44;;;;;;;18.48;10.77;;;11.80;99.90;;;;;;4968776;28;20030;-71
2022/04/29 03:18:20;;;;;;;21.08;12.77;;;11.80;99.90;;;;;;4971866;28;20047;-71
2022/04/29 03:20:48;;;;;;;20.98;10.98;;;11.80;99.90;;;;;;4968249;28;20027;-72
2022/04/29 03:23:14;;;;;;;18.98;11.48;;;11.70;99.90;;;;;;4965453;28;20140;-72
2022/04/29 03:25:40;;;;;;;18.65;10.88;;;11.70;99.90;;;;;;4966454;28;20064;-72
2022/04/29 03:28:06;;;;;;;25.92;11.48;;;11.60;99.90;;;;;;4964451;28;20464;-71
2022/04/29 03:30:32;;;;;;;16.65;10.70;;;11.60;99.90;;;;;;4970297;28;20511;-72
2022/04/29 03:33:00;;;;;;;21.10;11.75;;;11.60;99.90;;;;;;4988084;28;20104;-72
2022/04/29 03:35:27;;;;;;;19.70;10.77;;;11.70;99.90;;;;;;4969008;28;20031;-72
2022/04/29 03:37:53;;;;;;;22.48;11.40;;;11.60;99.90;;;;;;4984506;28;20031;-71
2022/04/29 03:40:24;;;;;;;22.23;11.73;;;11.60;99.90;;;;;;4970140;28;20084;-72
2022/04/29 03:42:54;;;;;;;19.73;11.10;;;11.60;99.90;;;;;;4971090;28;20031;-72
2022/04/29 03:45:21;;;;;;;22.92;11.20;;;11.60;99.90;;;;;;4967476;28;20041;-71
2022/04/29 03:47:47;;;;;;;17.67;11.20;;;11.60;99.90;;;;;;4964589;28;20054;-71
2022/04/29 03:50:13;;;;;;;25.48;11.40;;;11.60;99.90;;;;;;4965950;28;20443;-72
2022/04/29 03:52:53;;;;;;;18.08;10.95;;;11.70;99.90;;;;;;4965056;28;20973;-72
2022/04/29 03:55:21;;;;;;;22.85;11.60;;;11.60;99.90;;;;;;4965050;28;20035;-68
2022/04/29 03:57:47;;;;;;;20.20;11.30;;;11.60;99.90;;;;;;4967110;28;20027;-72
2022/04/29 04:00:14;;;;;;;22.42;12.52;;;11.60;99.90;;;;;;4967153;28;20041;-72
2022/04/29 04:02:41;;;;;;;20.48;12.40;;;11.30;99.90;;;;;;4965521;28;20049;-72
2022/04/29 04:05:07;;;;;;;29.27;12.48;;;11.40;99.90;;;;;;4971856;28;20061;-71
2022/04/29 04:07:33;;;;;;;23.75;12.02;;;11.40;99.90;;;;;;4967447;28;20042;-71
2022/04/29 04:09:59;;;;;;;21.40;11.27;;;11.50;99.90;;;;;;4968797;28;20030;-73
2022/04/29 04:12:25;;;;;;;21.70;12.02;;;11.50;99.90;;;;;;4971124;28;20046;-71
2022/04/29 04:14:52;;;;;;;21.27;11.77;;;11.50;99.90;;;;;;4969771;28;20041;-72
2022/04/29 04:17:17;;;;;;;18.42;11.73;;;11.40;99.90;;;;;;4965453;28;20062;-70
2022/04/29 04:19:43;;;;;;;20.08;11.07;;;11.40;99.90;;;;;;4970087;28;20423;-72
2022/04/29 04:22:10;;;;;;;17.55;11.60;;;11.40;99.90;;;;;;4967968;28;20045;-71
2022/04/29 04:24:36;;;;;;;22.02;12.68;;;11.50;99.90;;;;;;4970082;28;20022;-72
2022/04/29 04:27:02;;;;;;;23.23;12.85;;;11.40;99.90;;;;;;4970054;28;20038;-72
2022/04/29 04:29:27;;;;;;;18.13;12.52;;;11.40;99.90;;;;;;4967261;28;20102;-71
2022/04/29 04:31:53;;;;;;;21.00;12.25;;;11.40;99.90;;;;;;4963543;28;20031;-72
2022/04/29 04:37:03;;;;;;;26.17;13.48;;;11.40;99.90;;;;;;4967614;28;20084;-72
2022/04/29 04:39:29;;;;;;;21.27;12.68;;;11.30;99.90;;;;;;4966534;28;20053;-72
2022/04/29 04:41:55;;;;;;;28.63;13.38;;;11.30;99.90;;;;;;4963457;28;20030;-72
2022/04/29 04:44:21;;;;;;;20.40;12.43;;;11.30;99.90;;;;;;4963751;28;20039;-71
2022/04/29 04:46:46;;;;;;;22.73;12.35;;;11.30;99.90;;;;;;4968154;28;20031;-72
2022/04/29 04:49:13;;;;;;;22.55;12.60;;;11.30;99.90;;;;;;4969488;28;20100;-72
2022/04/29 04:51:39;;;;;;;23.23;12.35;;;11.30;99.90;;;;;;4963198;28;21184;-71
2022/04/29 04:54:05;;;;;;;22.02;12.13;;;11.30;99.90;;;;;;4968247;28;20373;-71
2022/04/29 04:56:31;;;;;;;24.52;13.50;;;11.30;99.90;;;;;;4966806;28;20015;-71
2022/04/29 04:58:56;;;;;;;23.33;12.80;;;11.30;99.90;;;;;;4962144;28;20551;-72
2022/04/29 05:01:22;;;;;;;23.10;12.13;;;11.30;99.90;;;;;;4966483;28;20102;-71
2022/04/29 05:03:48;;;;;;;21.58;12.40;;;11.40;99.90;;;;;;4964333;28;20039;-71
2022/04/29 05:06:14;;;;;;;22.45;12.82;;;11.40;99.90;;;;;;4966645;28;20066;-71
2022/04/29 05:08:39;;;;;;;22.35;13.13;;;11.30;99.90;;;;;;4965935;28;20030;-71
2022/04/29 05:11:05;;;;;;;21.80;12.32;;;11.30;99.90;;;;;;4965225;28;20081;-72
2022/04/29 05:13:31;;;;;;;21.70;12.23;;;11.30;99.90;;;;;;4968183;28;20091;-72
2022/04/29 05:15:57;;;;;;;24.38;13.48;;;11.40;99.90;;;;;;4975033;28;20498;-72
2022/04/29 05:18:23;;;;;;;19.35;12.63;;;11.40;99.90;;;;;;4961347;28;20476;-72
2022/04/29 05:20:48;;;;;;;27.38;13.05;;;11.40;99.90;;;;;;4969040;28;20131;-71
2022/04/29 05:23:14;;;;;;;29.17;13.93;;;11.40;99.90;;;;;;4967800;28;20822;-70
2022/04/29 05:25:40;;;;;;;25.05;13.95;;;11.40;99.90;;;;;;4968369;28;20133;-69
2022/04/29 05:28:07;;;;;;;19.60;12.27;;;11.30;99.90;;;;;;4969137;28;20149;-71
2022/04/29 05:30:33;;;;;;;23.90;13.43;;;11.30;99.90;;;;;;4964615;28;20034;-72
2022/04/29 05:32:59;;;;;;;20.35;13.38;;;11.20;99.90;;;;;;4967070;28;20693;-72
2022/04/29 05:35:24;;;;;;;22.92;13.18;;;11.20;99.90;;;;;;4963819;28;20483;-71
2022/04/29 05:37:51;;;;;;;23.52;13.15;;;11.20;99.90;;;;;;4966744;28;20022;-71
2022/04/29 05:43:02;;;;;;;27.30;13.15;;;11.30;99.90;;;;;;4969352;28;20100;-72
2022/04/29 05:45:28;;;;;;;25.55;12.93;;;11.30;99.90;;;;;;4967935;28;20470;-72
2022/04/29 05:47:54;;;;;;;22.42;12.63;;;11.40;99.90;;;;;;4972021;28;20360;-72
2022/04/29 05:50:20;;;;;;;21.88;13.05;;;11.40;99.90;;;;;;4967337;28;20023;-69
2022/04/29 05:52:46;;;;;;;22.67;12.60;;;11.40;99.90;;;;;;4966871;28;20027;-72
2022/04/29 05:55:13;;;;;;;23.90;12.75;;;11.60;99.90;;;;;;4965767;28;20034;-72
2022/04/29 05:57:39;;;;;;;24.65;13.20;;;11.60;99.90;;;;;;4964403;28;20035;-72
2022/04/29 06:00:06;;;;;;;25.77;13.35;;;11.60;99.90;;;;;;4964784;28;20037;-71
2022/04/29 06:02:33;;;;;;;21.95;13.43;;;11.60;99.90;;;;;;4959810;28;20097;-72
2022/04/29 06:05:01;;;;;;;22.98;13.20;;;11.60;99.90;;;;;;4961943;28;20369;-71
2022/04/29 06:07:27;;;;;;;19.63;12.57;;;11.70;99.90;;;;;;4964643;28;20031;-72
2022/04/29 06:09:52;;;;;;;32.22;12.88;;;11.70;99.90;;;;;;4966249;28;20033;-71
2022/04/29 06:12:18;;;;;;;24.45;13.02;;;11.70;99.90;;;;;;4966497;28;20121;-72
2022/04/29 06:14:45;;;;;;;24.88;13.27;;;11.80;99.90;;;;;;4966215;28;20041;-72
2022/04/29 06:17:14;;;;;;;21.45;12.27;;;11.70;99.90;;;;;;4962769;28;20491;-71
2022/04/29 06:19:40;;;;;;;27.05;13.90;;;11.70;99.90;;;;;;4965523;28;20067;-72
2022/04/29 06:22:06;;;;;;;26.33;13.02;;;11.70;99.90;;;;;;4966038;28;20085;-72
2022/04/29 06:24:33;;;;;;;30.25;12.98;;;11.80;99.90;;;;;;4962893;28;20034;-72
2022/04/29 06:26:58;;;;;;;20.20;13.07;;;11.80;99.90;;;;;;4966094;28;20035;-72
2022/04/29 06:29:24;;;;;;;26.52;14.40;;;11.90;99.90;;;;;;4965766;28;20035;-72
2022/04/29 06:31:50;;;;;;;21.25;12.73;;;11.80;99.90;;;;;;4964349;28;20054;-71
2022/04/29 06:34:16;;;;;;;27.95;15.20;;;11.80;99.90;;;;;;4965349;28;20040;-72
2022/04/29 06:36:41;;;;;;;27.65;14.63;;;11.80;99.90;;;;;;4968515;28;20049;-72
2022/04/29 06:39:07;;;;;;;23.63;14.20;;;11.90;99.90;;;;;;4968511;28;20490;-72
2022/04/29 06:41:35;;;;;;;25.63;13.75;;;11.90;99.90;;;;;;4965484;28;20059;-72
2022/04/29 06:44:00;;;;;;;23.63;12.25;;;11.90;99.90;;;;;;4968564;28;20023;-71
2022/04/29 06:46:26;;;;;;;25.15;14.23;;;11.90;99.90;;;;;;4966190;28;20408;-71
2022/04/29 06:48:56;;;;;;;21.10;13.15;;;12.00;99.90;;;;;;4973428;28;20039;-72
2022/04/29 06:51:22;;;;;;;26.52;14.23;;;11.90;99.90;;;;;;4964061;28;20027;-74
2022/04/29 06:53:48;;;;;;;29.90;14.73;;;11.90;99.90;;;;;;4960583;28;20046;-71
2022/04/29 06:56:14;;;;;;;22.92;14.05;;;11.90;99.90;;;;;;4962439;28;20031;-71
2022/04/29 06:58:41;;;;;;;22.60;13.30;;;12.00;99.90;;;;;;4961375;28;20031;-73
2022/04/29 07:01:07;;;;;;;28.10;15.23;;;11.90;99.90;;;;;;4966582;28;20114;-72
2022/04/29 07:03:32;;;;;;;24.55;13.23;;;12.00;99.90;;;;;;4965461;28;20102;-72
2022/04/29 07:06:00;;;;;;;26.95;14.32;;;12.00;99.90;;;;;;4964849;28;20036;-72
2022/04/29 07:08:28;;;;;;;26.75;15.88;;;12.10;99.90;;;;;;4965521;28;20038;-71
2022/04/29 07:10:55;;;;;;;27.77;14.55;;;12.20;99.90;;;;;;4964562;28;20023;-72
2022/04/29 07:13:20;;;;;;;24.42;15.13;;;12.20;99.90;;;;;;4964317;28;20038;-72
2022/04/29 07:15:48;;;;;;;27.85;13.88;;;12.20;99.90;;;;;;4966421;28;20030;-73
2022/04/29 07:18:15;;;;;;;27.48;14.25;;;12.20;99.90;;;;;;4967244;28;20057;-73
2022/04/29 07:20:41;;;;;;;24.05;14.50;;;12.20;99.90;;;;;;4964371;28;20038;-72
2022/04/29 07:23:07;;;;;;;23.52;14.63;;;12.20;99.90;;;;;;4966737;28;20030;-73
2022/04/29 07:25:33;;;;;;;26.63;14.75;;;12.20;99.90;;;;;;4965830;28;20027;-72
2022/04/29 07:27:59;;;;;;;26.80;14.48;;;12.30;99.90;;;;;;4965056;28;20059;-73
2022/04/29 07:30:26;;;;;;;26.35;13.88;;;12.40;99.90;;;;;;4961810;28;20070;-72
2022/04/29 07:32:52;;;;;;;26.42;15.02;;;12.40;99.90;;;;;;4967332;28;20080;-73
2022/04/29 07:43:30;;;;;;;23.92;13.60;;;12.70;99.90;;;;;;4960252;28;20045;-70
2022/04/29 07:45:58;;;;;;;22.42;14.43;;;12.80;99.90;;;;;;4965328;28;20022;-71
2022/04/29 07:48:23;;;;;;;27.25;14.80;;;12.80;99.90;;;;;;4967825;28;20302;-71
2022/04/29 07:50:50;;;;;;;28.20;15.07;;;13.00;99.90;;;;;;4968844;28;20562;-71
2022/04/29 07:53:15;;;;;;;23.30;14.88;;;13.10;99.90;;;;;;4967180;28;20033;-71
2022/04/29 07:55:41;;;;;;;30.88;14.02;;;13.20;99.90;;;;;;4970196;28;20046;-72
2022/04/29 07:58:08;;;;;;;24.27;15.88;;;13.30;99.90;;;;;;4968788;28;20042;-72
2022/04/29 08:00:37;;;;;;;29.30;14.95;;;13.30;99.90;;;;;;4965334;28;20121;-72
2022/04/29 08:03:04;;;;;;;29.52;14.88;;;13.30;99.90;;;;;;4966955;28;20105;-72
2022/04/29 08:05:30;;;;;;;24.25;14.70;;;13.30;99.90;;;;;;4963598;28;20035;-72
2022/04/29 08:07:59;;;;;;;29.63;15.85;;;13.30;99.90;;;;;;4959015;28;20800;-72
2022/04/29 08:10:26;;;;;;;23.98;15.20;;;13.30;99.90;;;;;;4968660;28;20136;-72
2022/04/29 08:12:52;;;;;;;27.05;14.73;;;13.30;99.90;;;;;;4971076;28;20035;-72
2022/04/29 08:15:18;;;;;;;26.67;15.98;;;13.30;99.90;;;;;;4968835;28;20096;-71
2022/04/29 08:17:44;;;;;;;23.50;14.05;;;13.40;99.90;;;;;;4966232;28;20142;-71
2022/04/29 08:20:10;;;;;;;24.77;14.35;;;13.50;99.90;;;;;;4968913;28;20042;-72
2022/04/29 08:22:36;;;;;;;26.65;16.25;;;13.50;99.90;;;;;;4971191;28;20367;-71
2022/04/29 08:25:03;;;;;;;23.70;14.77;;;13.60;99.90;;;;;;4968908;28;20035;-71
2022/04/29 08:27:29;;;;;;;25.33;16.45;;;13.40;99.90;;;;;;4966826;28;20497;-72
2022/04/29 08:29:56;;;;;;;28.48;16.45;;;13.50;99.90;;;;;;4964756;28;20034;-71
2022/04/29 08:32:22;;;;;;;27.60;15.25;;;13.60;99.90;;;;;;4968313;28;20396;-71
2022/04/29 08:34:48;;;;;;;26.90;16.77;;;13.80;99.90;;;;;;4967813;28;20103;-72
2022/04/29 08:37:14;;;;;;;25.20;15.27;;;13.80;99.90;;;;;;4964650;28;20034;-72
2022/04/29 08:39:40;;;;;;;27.23;16.67;;;13.90;99.90;;;;;;4964117;28;20043;-71
2022/04/29 08:42:06;;;;;;;26.20;16.42;;;13.90;99.90;;;;;;4966862;28;20054;-72
2022/04/29 08:44:34;;;;;;;27.42;16.38;;;13.80;99.90;;;;;;4968798;28;20118;-72
2022/04/29 08:47:00;;;;;;;32.53;16.95;;;13.80;99.90;;;;;;4971207;28;20027;-72
2022/04/29 08:49:26;;;;;;;26.05;15.75;;;13.90;99.90;;;;;;4966795;28;20092;-71
2022/04/29 08:51:53;;;;;;;33.88;16.70;;;13.90;99.90;;;;;;4970451;28;20102;-72
2022/04/29 08:59:57;;;;;;;29.48;17.33;;;13.70;99.90;;;;;;4962058;28;20061;-72
2022/04/29 09:02:22;;;;;;;32.85;18.73;;;13.80;99.90;;;;;;4965298;28;20027;-71
2022/04/29 09:04:49;;;;;;;29.02;16.85;;;13.90;99.90;;;;;;4966558;28;20133;-72
2022/04/29 09:07:15;;;;;;;34.35;17.83;;;14.00;99.90;;;;;;4966026;28;20042;-74
2022/04/29 09:09:41;;;;;;;25.67;16.58;;;14.10;99.90;;;;;;4965008;28;20490;-73
2022/04/29 09:12:17;;;;;;;25.20;16.92;;;14.10;99.90;;;;;;4964776;28;20069;-74
2022/04/29 09:14:43;;;;;;;25.27;16.38;;;14.20;99.90;;;;;;4969361;28;20050;-73
2022/04/29 09:17:28;;;;;;;27.58;17.65;;;14.20;99.90;;;;;;4966735;28;20035;-74
2022/04/29 09:19:54;;;;;;;30.48;17.95;;;14.20;99.90;;;;;;4969057;28;20071;-74
2022/04/29 09:22:19;;;;;;;28.42;17.50;;;14.10;99.90;;;;;;4968781;28;20055;-73
2022/04/29 09:25:02;;;;;;;26.95;16.88;;;14.20;99.90;;;;;;4966288;28;20023;-73
2022/04/29 09:27:28;;;;;;;26.92;16.48;;;14.30;99.90;;;;;;4967814;28;20067;-74
2022/04/29 09:29:59;;;;;;;31.08;18.92;;;14.40;99.90;;;;;;4965197;28;20100;-74
2022/04/29 09:32:24;;;;;;;24.75;17.00;;;14.40;99.90;;;;;;4942242;28;20363;-72
2022/04/29 09:34:58;;;;;;;33.08;16.85;;;14.60;99.90;;;;;;4959067;28;20625;-73
2022/04/29 09:37:28;;;;;;;32.15;17.08;;;14.70;99.90;;;;;;4965496;28;20098;-73
2022/04/29 09:40:00;;;;;;;24.95;15.40;;;14.70;99.90;;;;;;4958792;28;20023;-73
2022/04/29 09:42:40;;;;;;;33.65;18.60;;;14.80;99.90;;;;;;4961409;28;20615;-71
2022/04/29 09:45:23;;;;;;;29.00;17.60;;;14.60;99.90;;;;;;4962493;28;20023;-73
2022/04/29 09:48:00;;;;;;;27.13;17.48;;;14.70;99.90;;;;;;4976244;28;20035;-71
2022/04/29 09:50:49;;;;;;;27.20;17.33;;;14.90;99.90;;;;;;4970646;28;20043;-72
2022/04/29 09:53:21;;;;;;;29.27;17.77;;;14.80;99.90;;;;;;4962293;28;20039;-72
2022/04/29 09:56:06;;;;;;;31.85;17.10;;;14.80;99.90;;;;;;4965867;28;20119;-73
2022/04/29 09:58:32;;;;;;;27.30;16.95;;;14.80;99.90;;;;;;4967468;28;20033;-73
2022/04/29 10:01:02;;;;;;;27.88;17.10;;;14.80;99.90;;;;;;4962775;28;20023;-72
2022/04/29 10:03:28;;;;;;;27.52;16.98;;;14.80;99.90;;;;;;4973033;28;20030;-72
2022/04/29 10:05:55;;;;;;;27.58;16.90;;;14.80;99.90;;;;;;4960306;28;20039;-73
2022/04/29 10:08:27;;;;;;;29.88;16.90;;;14.80;99.90;;;;;;4957536;28;20550;-73
2022/04/29 10:10:55;;;;;;;27.30;16.55;;;14.60;99.90;;;;;;4960644;28;20037;-71
2022/04/29 10:13:23;;;;;;;32.67;17.58;;;14.60;99.90;;;;;;4974965;28;20031;-71
2022/04/29 10:15:50;;;;;;;27.13;16.55;;;14.50;99.90;;;;;;4960359;28;20039;-72
2022/04/29 10:21:16;;;;;;;25.33;16.95;;;14.80;99.90;;;;;;4957284;28;20085;-71
2022/04/29 10:23:48;;;;;;;26.90;16.30;;;14.90;99.90;;;;;;4965417;28;20025;-71
2022/04/29 10:26:19;;;;;;;27.75;15.68;;;14.90;99.90;;;;;;4973523;28;20028;-71
2022/04/29 10:28:45;;;;;;;28.65;16.67;;;14.90;99.90;;;;;;4960696;28;20019;-71
2022/04/29 10:31:20;;;;;;;35.00;17.02;;;14.90;99.90;;;;;;4964433;28;20026;-71
2022/04/29 10:33:46;;;;;;;26.63;17.33;;;14.90;99.90;;;;;;4964341;28;20065;-71
2022/04/29 10:36:16;;;;;;;26.27;17.23;;;15.00;99.90;;;;;;4955185;28;20038;-71
2022/04/29 10:38:46;;;;;;;25.65;16.48;;;15.00;99.90;;;;;;4959116;28;20019;-71
2022/04/29 10:41:25;;;;;;;29.67;17.45;;;15.00;99.90;;;;;;4964144;28;20035;-71
2022/04/29 10:43:50;;;;;;;25.52;17.88;;;15.00;99.90;;;;;;4958843;28;20046;-71
2022/04/29 10:46:24;;;;;;;29.73;17.35;;;14.90;99.90;;;;;;4956419;28;20515;-71
2022/04/29 10:48:54;;;;;;;28.83;17.52;;;14.90;99.90;;;;;;4959723;28;20106;-71
2022/04/29 10:51:25;;;;;;;32.28;17.75;;;15.00;99.90;;;;;;4971893;28;20027;-69
2022/04/29 10:53:53;;;;;;;28.48;17.55;;;15.00;99.90;;;;;;4969176;28;20035;-70
2022/04/29 10:56:30;;;;;;;28.88;16.83;;;15.00;99.90;;;;;;4961147;28;20041;-70
2022/04/29 10:59:15;;;;;;;25.33;16.20;;;15.00;99.90;;;;;;4961008;28;20118;-70
2022/04/29 11:01:47;;;;;;;31.83;17.13;;;15.00;99.90;;;;;;4965193;28;20428;-71
2022/04/29 11:04:16;;;;;;;23.40;16.45;;;15.00;99.90;;;;;;4964281;28;20120;-70
2022/04/29 11:06:52;;;;;;;29.00;17.02;;;15.00;99.90;;;;;;4963022;28;20053;-71
2022/04/29 11:09:28;;;;;;;26.77;18.15;;;15.00;99.90;;;;;;4965633;28;20998;-71
2022/04/29 11:11:54;;;;;;;24.92;16.70;;;15.00;99.90;;;;;;4964855;28;20065;-70
2022/04/29 11:14:20;;;;;;;24.02;15.90;;;15.10;99.90;;;;;;4967469;28;20047;-70
2022/04/29 11:16:52;;;;;;;27.95;17.75;;;15.10;99.90;;;;;;4967756;28;20038;-71
2022/04/29 11:19:33;;;;;;;31.88;17.80;;;15.10;99.90;;;;;;4963326;28;20031;-71
2022/04/29 11:24:47;;;;;;;30.30;17.70;;;15.10;99.90;;;;;;4970013;28;20042;-71
2022/04/29 11:27:13;;;;;;;33.30;18.33;;;15.00;99.90;;;;;;4970151;28;20030;-71
2022/04/29 11:29:46;;;;;;;28.90;16.67;;;15.10;99.90;;;;;;4971048;28;20054;-71
2022/04/29 11:32:12;;;;;;;29.00;17.45;;;15.20;99.90;;;;;;4970475;28;20038;-71
2022/04/29 11:35:04;;;;;;;25.33;16.40;;;15.30;99.90;;;;;;4970910;28;20034;-71
2022/04/29 11:37:35;;;;;;;28.55;16.88;;;15.30;99.90;;;;;;4961718;28;20110;-71
2022/04/29 11:40:09;;;;;;;33.40;18.35;;;15.40;99.90;;;;;;4967130;28;20475;-71
2022/04/29 11:42:35;;;;;;;30.42;17.67;;;15.40;99.90;;;;;;4969653;28;20490;-71
2022/04/29 11:45:04;;;;;;;32.78;17.33;;;15.50;99.90;;;;;;4970055;28;20041;-71
2022/04/29 11:47:31;;;;;;;30.35;18.02;;;15.50;99.90;;;;;;4970420;28;20027;-72
2022/04/29 11:49:57;;;;;;;26.83;16.90;;;15.50;99.90;;;;;;4970167;28;20404;-71
2022/04/29 11:52:27;;;;;;;29.70;18.27;;;15.50;99.90;;;;;;4968170;28;20051;-71
2022/04/29 11:55:00;;;;;;;27.52;17.52;;;15.50;99.90;;;;;;4969963;28;20054;-71
2022/04/29 11:57:29;;;;;;;30.75;16.83;;;15.50;99.90;;;;;;4969833;28;20027;-72
2022/04/29 11:59:55;;;;;;;26.52;16.73;;;15.50;99.90;;;;;;4969807;28;20045;-71
2022/04/29 12:02:24;;;;;;;25.77;16.10;;;15.60;99.90;;;;;;4968440;28;20058;-71
2022/04/29 12:05:02;;;;;;;30.08;17.38;;;15.60;99.90;;;;;;4968385;28;20096;-72
2022/04/29 12:07:29;;;;;;;25.95;15.70;;;15.70;99.90;;;;;;4969308;28;20027;-71
2022/04/29 12:09:56;;;;;;;24.58;15.73;;;15.70;99.90;;;;;;4968164;28;20031;-71
2022/04/29 12:12:28;;;;;;;32.40;16.45;;;15.70;99.90;;;;;;4969265;28;20563;-71
2022/04/29 12:14:55;;;;;;;25.58;16.98;;;15.70;99.90;;;;;;4969226;28;20128;-72
2022/04/29 12:17:32;;;;;;;30.45;16.77;;;15.70;99.90;;;;;;4969003;28;20096;-71
2022/04/29 12:19:58;;;;;;;25.95;16.83;;;15.70;99.90;;;;;;4969975;28;20123;-71
2022/04/29 12:22:31;;;;;;;27.13;15.52;;;15.80;99.90;;;;;;4968989;28;20479;-71
2022/04/29 12:24:57;;;;;;;22.80;15.93;;;15.90;99.90;;;;;;4967599;28;20089;-71
2022/04/29 12:27:30;;;;;;;26.90;15.30;;;16.00;99.90;;;;;;4968815;28;20448;-71
2022/04/29 12:35:30;;;;;;;24.15;15.38;;;16.00;99.90;;;;;;4964826;28;20077;-71
2022/04/29 12:37:56;;;;;;;29.70;15.88;;;16.10;99.90;;;;;;4960548;28;20051;-71
2022/04/29 12:40:29;;;;;;;25.95;14.35;;;16.10;99.90;;;;;;4964207;28;20035;-71
2022/04/29 12:43:11;;;;;;;28.40;15.68;;;16.20;99.90;;;;;;4967621;28;20052;-71
2022/04/29 12:45:37;;;;;;;24.17;14.45;;;16.20;99.90;;;;;;4966793;28;20030;-71
2022/04/29 12:48:05;;;;;;;26.38;15.52;;;16.20;99.90;;;;;;4968090;28;20023;-71
2022/04/29 12:50:42;;;;;;;26.90;14.43;;;16.10;99.90;;;;;;4965125;28;20027;-71
2022/04/29 12:53:16;;;;;;;21.35;14.25;;;16.10;99.90;;;;;;4966805;28;20080;-71
2022/04/29 12:55:42;;;;;;;25.00;14.10;;;16.20;99.90;;;;;;4964420;28;20498;-71
2022/04/29 12:58:11;;;;;;;30.13;13.90;;;16.40;99.90;;;;;;4961350;28;20031;-71
2022/04/29 13:00:44;;;;;;;26.98;14.50;;;16.30;99.90;;;;;;4964432;28;20034;-71